createdAt,value
2018-11-05T00:00:58.307Z,11.70
2018-11-05T00:03:26.525Z,11.70
2018-11-05T00:05:54.797Z,11.70
2018-11-05T00:08:23.073Z,11.80
2018-11-05T00:10:51.275Z,11.80
2018-11-05T00:13:19.509Z,11.80
2018-11-05T00:15:47.755Z,11.90
2018-11-05T00:18:15.995Z,11.80
2018-11-05T00:20:44.253Z,11.70
2018-11-05T00:23:12.468Z,11.80
2018-11-05T00:25:40.701Z,11.80
2018-11-05T00:28:08.979Z,11.80
2018-11-05T00:30:37.217Z,11.70
2018-11-05T00:33:05.501Z,11.60
2018-11-05T00:35:33.733Z,11.60
2018-11-05T00:38:01.982Z,11.50
2018-11-05T00:40:30.218Z,11.60
2018-11-05T00:42:58.745Z,11.50
2018-11-05T00:45:27.041Z,11.50
2018-11-05T00:47:55.211Z,11.50
2018-11-05T00:50:23.416Z,11.40
2018-11-05T00:52:51.599Z,11.40
2018-11-05T00:55:19.825Z,11.30
2018-11-05T00:57:48.054Z,11.30
2018-11-05T01:00:17.188Z,11.20
2018-11-05T01:02:45.391Z,11.20
2018-11-05T01:05:15.085Z,11.30
2018-11-05T01:07:44.163Z,11.40
2018-11-05T01:10:13.627Z,11.40
2018-11-05T01:12:42.057Z,11.50
2018-11-05T01:15:12.303Z,11.50
2018-11-05T01:17:40.562Z,11.50
2018-11-05T01:20:10.225Z,11.50
2018-11-05T01:22:38.775Z,11.50
2018-11-05T01:25:07.042Z,11.40
2018-11-05T01:27:35.264Z,11.30
2018-11-05T01:30:03.685Z,11.30
2018-11-05T01:32:31.975Z,11.30
2018-11-05T01:35:00.197Z,11.40
2018-11-05T01:37:28.507Z,11.40
2018-11-05T01:39:56.741Z,11.50
2018-11-05T01:42:24.973Z,11.50
2018-11-05T01:44:53.233Z,11.50
2018-11-05T01:47:21.508Z,11.60
2018-11-05T01:49:49.711Z,11.60
2018-11-05T01:52:17.971Z,11.50
2018-11-05T01:54:46.287Z,11.50
2018-11-05T01:57:14.529Z,11.50
2018-11-05T01:59:42.760Z,11.40
2018-11-05T02:02:11.025Z,11.30
2018-11-05T02:04:39.245Z,11.20
2018-11-05T02:07:07.517Z,11.10
2018-11-05T02:09:35.773Z,11.00
2018-11-05T02:12:04.070Z,10.90
2018-11-05T02:14:32.309Z,10.90
2018-11-05T02:17:00.523Z,10.80
2018-11-05T02:19:28.977Z,10.80
2018-11-05T02:21:57.233Z,10.70
2018-11-05T02:24:25.442Z,10.70
2018-11-05T02:26:53.986Z,10.60
2018-11-05T02:29:22.203Z,10.60
2018-11-05T02:31:50.445Z,10.60
2018-11-05T02:34:18.693Z,10.60
2018-11-05T02:36:46.933Z,10.50
2018-11-05T02:39:15.460Z,10.50
2018-11-05T02:41:43.676Z,10.50
2018-11-05T02:44:11.930Z,10.40
2018-11-05T02:46:40.144Z,10.40
2018-11-05T02:49:08.353Z,10.40
2018-11-05T02:51:36.563Z,10.40
2018-11-05T02:54:05.002Z,10.30
2018-11-05T02:56:33.205Z,10.30
2018-11-05T02:59:01.678Z,10.30
2018-11-05T03:01:29.881Z,10.20
2018-11-05T03:03:58.103Z,10.20
2018-11-05T03:06:26.313Z,10.20
2018-11-05T03:08:54.534Z,10.20
2018-11-05T03:11:22.769Z,10.10
2018-11-05T03:13:51.003Z,10.10
2018-11-05T03:16:19.569Z,10.20
2018-11-05T03:18:47.850Z,10.20
2018-11-05T03:21:16.205Z,10.10
2018-11-05T03:23:44.450Z,10.10
2018-11-05T03:26:12.677Z,10.00
2018-11-05T03:28:40.929Z,10.00
2018-11-05T03:31:09.381Z,9.90
2018-11-05T03:33:37.605Z,9.90
2018-11-05T03:36:06.510Z,9.90
2018-11-05T03:38:35.010Z,9.90
2018-11-05T03:41:03.311Z,9.80
2018-11-05T03:43:31.529Z,9.80
2018-11-05T03:45:59.770Z,9.80
2018-11-05T03:48:27.987Z,9.80
2018-11-05T03:50:56.412Z,9.70
2018-11-05T03:53:24.637Z,9.80
2018-11-05T03:55:52.900Z,9.80
2018-11-05T03:58:21.114Z,9.80
2018-11-05T04:00:49.371Z,9.90
2018-11-05T04:03:17.692Z,9.90
2018-11-05T04:05:45.894Z,10.00
2018-11-05T04:08:14.145Z,10.00
2018-11-05T04:10:42.398Z,10.10
2018-11-05T04:13:10.625Z,10.10
2018-11-05T04:15:39.011Z,10.20
2018-11-05T04:18:07.101Z,10.20
2018-11-05T04:20:35.474Z,10.20
2018-11-05T04:23:03.829Z,10.20
2018-11-05T04:25:32.068Z,10.20
2018-11-05T04:28:00.321Z,10.30
2018-11-05T04:30:28.586Z,10.30
2018-11-05T04:32:56.858Z,10.30
2018-11-05T04:35:25.117Z,10.30
2018-11-05T04:37:53.377Z,10.40
2018-11-05T04:40:21.585Z,10.40
2018-11-05T04:42:49.842Z,10.40
2018-11-05T04:45:18.349Z,10.40
2018-11-05T04:47:47.081Z,10.40
2018-11-05T04:50:15.282Z,10.40
2018-11-05T04:52:44.213Z,10.40
2018-11-05T04:55:12.425Z,10.40
2018-11-05T04:57:40.644Z,10.30
2018-11-05T05:00:11.799Z,10.30
2018-11-05T05:02:41.201Z,10.10
2018-11-05T05:05:10.182Z,10.10
2018-11-05T05:07:38.688Z,10.00
2018-11-05T05:10:07.673Z,9.90
2018-11-05T05:12:36.013Z,9.90
2018-11-05T05:15:04.676Z,9.80
2018-11-05T05:17:32.881Z,9.80
2018-11-05T05:20:01.137Z,9.80
2018-11-05T05:22:29.547Z,9.70
2018-11-05T05:24:57.754Z,9.60
2018-11-05T05:27:26.007Z,9.60
2018-11-05T05:29:54.386Z,9.60
2018-11-05T05:32:22.622Z,9.60
2018-11-05T05:34:51.094Z,9.60
2018-11-05T05:37:19.325Z,9.60
2018-11-05T05:39:47.573Z,9.50
2018-11-05T05:42:15.801Z,9.60
2018-11-05T05:44:44.021Z,9.60
2018-11-05T05:47:12.376Z,9.70
2018-11-05T05:49:40.580Z,9.70
2018-11-05T05:52:09.004Z,9.70
2018-11-05T05:54:37.510Z,9.70
2018-11-05T05:57:05.817Z,9.70
2018-11-05T05:59:34.045Z,9.60
2018-11-05T06:02:02.290Z,9.70
2018-11-05T06:04:30.537Z,9.70
2018-11-05T06:06:58.790Z,9.70
2018-11-05T06:09:27.021Z,9.70
